Time;durP1;ratioP1;P1;durP2;ratioP2;P2;SDS_P1;SDS_P2;PMS_P1;PMS_P2;Temp;Humidity;BMP_temperature;BMP_pressure;BME280_temperature;BME280_humidity;BME280_pressure;Samples;Min_cycle;Max_cycle;Signal;HPM_P1;HPM_P2
2022/04/15 00:02:09;;;;;;;49.45;17.00;;;5.80;99.90;;;;;;5087137;28;20040;-70
2022/04/15 00:04:36;;;;;;;52.33;17.80;;;5.80;99.90;;;;;;5083790;28;20437;-70
2022/04/15 00:07:02;;;;;;;183.50;20.17;;;5.90;99.90;;;;;;5087765;28;20040;-69
2022/04/15 00:09:30;;;;;;;170.82;19.23;;;5.90;99.90;;;;;;5086451;28;20040;-70
2022/04/15 00:11:56;;;;;;;259.17;21.15;;;5.90;99.90;;;;;;5086410;28;20101;-69
2022/04/15 00:14:22;;;;;;;902.22;34.45;;;5.80;99.90;;;;;;5082977;28;20567;-70
2022/04/15 00:16:48;;;;;;;487.05;20.92;;;5.80;99.90;;;;;;5068725;28;20321;-70
2022/04/15 00:19:14;;;;;;;466.42;22.08;;;5.50;99.90;;;;;;5082234;28;20450;-69
2022/04/15 00:21:39;;;;;;;356.92;20.27;;;5.40;99.90;;;;;;5092149;28;20046;-70
2022/04/15 00:24:05;;;;;;;39.60;16.08;;;5.30;99.90;;;;;;5092132;28;20055;-70
2022/04/15 00:26:31;;;;;;;50.45;17.88;;;5.40;99.90;;;;;;5091911;28;20048;-69
2022/04/15 00:28:57;;;;;;;46.60;14.68;;;5.30;99.90;;;;;;5089368;28;20052;-69
2022/04/15 00:31:23;;;;;;;53.53;17.77;;;5.30;99.90;;;;;;5090184;28;20529;-69
2022/04/15 00:33:49;;;;;;;50.33;15.43;;;5.50;99.90;;;;;;5090458;28;20068;-69
2022/04/15 00:36:14;;;;;;;52.80;17.85;;;5.40;99.90;;;;;;5092370;28;20044;-69
2022/04/15 00:38:40;;;;;;;50.05;16.77;;;5.30;99.90;;;;;;5091290;28;20122;-69
2022/04/15 00:41:05;;;;;;;48.88;16.85;;;5.30;99.90;;;;;;5092116;28;20452;-69
2022/04/15 00:43:32;;;;;;;55.22;16.45;;;5.50;99.90;;;;;;5089591;28;20538;-69
2022/04/15 00:46:08;;;;;;;42.30;16.23;;;5.30;99.90;;;;;;5092438;28;20047;-69
2022/04/15 00:48:35;;;;;;;43.65;15.88;;;5.30;99.90;;;;;;5090046;28;20042;-69
2022/04/15 00:51:01;;;;;;;50.05;16.98;;;5.40;99.90;;;;;;5092133;28;20127;-69
2022/04/15 00:53:29;;;;;;;58.50;16.73;;;5.40;99.90;;;;;;5090838;28;20085;-69
2022/04/15 00:56:01;;;;;;;62.45;17.10;;;5.40;99.90;;;;;;5092052;28;20442;-69
2022/04/15 00:58:28;;;;;;;75.55;18.90;;;5.30;99.90;;;;;;5091724;28;20111;-69
2022/04/15 01:00:56;;;;;;;57.60;17.58;;;5.30;99.90;;;;;;5091224;28;20410;-69
2022/04/15 01:03:22;;;;;;;196.25;18.10;;;5.50;99.90;;;;;;5091646;28;20127;-70
2022/04/15 01:05:51;;;;;;;371.83;22.48;;;5.40;99.90;;;;;;5091082;28;20456;-69
2022/04/15 01:08:21;;;;;;;526.50;23.20;;;5.20;99.90;;;;;;5083992;28;20040;-69
2022/04/15 01:10:47;;;;;;;52.53;16.30;;;5.30;99.90;;;;;;5088753;28;20085;-69
2022/04/15 01:13:14;;;;;;;141.10;17.48;;;5.10;99.90;;;;;;5091096;28;20044;-69
2022/04/15 01:15:40;;;;;;;64.30;17.85;;;5.30;99.90;;;;;;5090405;28;20139;-69
2022/04/15 01:18:06;;;;;;;73.00;16.63;;;5.20;99.90;;;;;;5090407;28;20039;-69
2022/04/15 01:20:32;;;;;;;59.97;17.15;;;5.00;99.90;;;;;;5089451;28;20040;-69
2022/04/15 01:23:05;;;;;;;53.85;16.83;;;5.00;99.90;;;;;;5090270;28;20062;-69
2022/04/15 01:25:31;;;;;;;69.63;18.35;;;5.10;99.90;;;;;;5088963;28;20044;-69
2022/04/15 01:27:57;;;;;;;78.03;17.92;;;5.20;99.90;;;;;;5090887;28;20051;-69
2022/04/15 01:30:23;;;;;;;60.75;17.13;;;5.20;99.90;;;;;;5090078;28;20054;-69
2022/04/15 01:32:49;;;;;;;118.50;17.48;;;5.20;99.90;;;;;;5080819;28;20032;-69
2022/04/15 01:35:17;;;;;;;95.45;17.17;;;5.20;99.90;;;;;;5073369;28;20032;-69
2022/04/15 01:37:45;;;;;;;62.70;16.73;;;5.20;99.90;;;;;;5073597;28;20024;-69
2022/04/15 01:40:13;;;;;;;83.05;15.80;;;5.10;99.90;;;;;;5071231;28;20044;-69
2022/04/15 01:42:40;;;;;;;169.82;16.45;;;5.10;99.90;;;;;;5086380;28;20409;-69
2022/04/15 01:45:06;;;;;;;434.73;24.40;;;5.00;99.90;;;;;;5089780;28;20257;-69
2022/04/15 01:47:32;;;;;;;289.27;20.50;;;5.00;99.90;;;;;;5089331;28;20088;-69
2022/04/15 01:49:58;;;;;;;394.75;23.13;;;4.90;99.90;;;;;;5089562;28;20126;-68
2022/04/15 01:52:24;;;;;;;338.20;20.65;;;5.00;99.90;;;;;;5073287;28;20040;-69
2022/04/15 01:54:49;;;;;;;77.22;15.52;;;4.70;99.90;;;;;;5089730;28;20032;-68
2022/04/15 01:57:15;;;;;;;230.07;21.73;;;4.70;99.90;;;;;;5090478;28;20044;-68
2022/04/15 01:59:41;;;;;;;123.88;20.10;;;4.70;99.90;;;;;;5089488;28;20391;-68
2022/04/15 02:02:07;;;;;;;78.85;19.98;;;4.60;99.90;;;;;;5091061;28;20032;-68
2022/04/15 02:04:33;;;;;;;137.20;19.45;;;4.70;99.90;;;;;;5090345;28;20035;-69
2022/04/15 02:06:59;;;;;;;106.45;19.70;;;4.80;99.90;;;;;;5091404;28;20089;-68
2022/04/15 02:09:25;;;;;;;53.15;17.13;;;4.90;99.90;;;;;;5089883;28;20032;-68
2022/04/15 02:11:51;;;;;;;76.20;18.90;;;4.90;99.90;;;;;;5090436;28;20116;-68
2022/04/15 02:14:18;;;;;;;59.80;18.38;;;5.10;99.90;;;;;;5088948;28;20475;-68
2022/04/15 02:16:44;;;;;;;62.50;17.65;;;5.00;99.90;;;;;;5090263;28;20069;-68
2022/04/15 02:19:09;;;;;;;53.80;16.13;;;5.20;99.90;;;;;;5089809;28;20565;-69
2022/04/15 02:21:35;;;;;;;54.97;16.70;;;5.20;99.90;;;;;;5073027;28;20040;-69
2022/04/15 02:24:01;;;;;;;52.65;15.50;;;5.30;99.90;;;;;;5090382;28;20044;-68
2022/04/15 02:26:26;;;;;;;53.67;16.45;;;5.30;99.90;;;;;;5073331;28;20126;-68
2022/04/15 02:28:52;;;;;;;56.47;16.02;;;5.30;99.90;;;;;;5086484;28;20043;-68
2022/04/15 02:31:17;;;;;;;53.88;16.05;;;5.10;99.90;;;;;;5089962;28;20048;-68
2022/04/15 02:33:43;;;;;;;57.63;16.15;;;5.10;99.90;;;;;;5089671;28;20055;-68
2022/04/15 02:36:09;;;;;;;59.63;17.17;;;5.30;99.90;;;;;;5090003;28;20514;-69
2022/04/15 02:38:35;;;;;;;52.22;16.85;;;5.30;99.90;;;;;;5089671;28;20075;-68
2022/04/15 02:41:03;;;;;;;45.78;15.52;;;5.20;99.90;;;;;;5084343;28;20036;-68
2022/04/15 02:43:31;;;;;;;52.33;15.75;;;5.30;99.90;;;;;;5087754;28;20067;-68
2022/04/15 02:46:01;;;;;;;39.08;15.02;;;5.20;99.90;;;;;;5089638;28;20047;-68
2022/04/15 02:48:28;;;;;;;45.65;15.73;;;5.50;99.90;;;;;;5089150;28;20040;-68
2022/04/15 02:50:54;;;;;;;47.38;15.93;;;5.40;99.90;;;;;;5088777;28;20535;-68
2022/04/15 02:53:20;;;;;;;48.42;15.48;;;5.50;99.90;;;;;;5089719;28;20134;-68
2022/04/15 02:55:46;;;;;;;49.22;15.52;;;5.60;99.90;;;;;;5088874;28;20035;-68
2022/04/15 02:58:11;;;;;;;41.13;14.48;;;5.70;99.90;;;;;;5070137;28;20601;-68
2022/04/15 03:00:37;;;;;;;48.47;16.02;;;5.50;99.90;;;;;;5088490;28;20039;-68
2022/04/15 03:03:03;;;;;;;51.08;16.23;;;5.80;99.90;;;;;;5084594;28;20039;-68
2022/04/15 03:05:30;;;;;;;49.03;15.57;;;5.80;99.90;;;;;;5073157;28;20055;-68
2022/04/15 03:07:55;;;;;;;45.33;15.63;;;5.70;99.90;;;;;;5072834;28;20040;-68
2022/04/15 03:10:21;;;;;;;48.13;16.30;;;5.80;99.90;;;;;;5088723;28;20040;-68
2022/04/15 03:12:47;;;;;;;43.45;16.17;;;6.00;99.90;;;;;;5089138;28;20028;-68
2022/04/15 03:15:13;;;;;;;46.95;16.02;;;5.80;99.90;;;;;;5089790;28;20089;-68
2022/04/15 03:17:38;;;;;;;41.30;16.33;;;5.80;99.90;;;;;;5089896;28;20043;-68
2022/04/15 03:20:06;;;;;;;45.13;16.73;;;6.10;99.90;;;;;;5083993;28;20051;-68
2022/04/15 03:22:39;;;;;;;47.85;16.40;;;5.90;99.90;;;;;;5084801;28;20046;-68
2022/04/15 03:25:05;;;;;;;;;;;6.10;99.90;;;;;;5086478;28;20028;-68
2022/04/15 03:27:30;;;;;;;42.90;14.95;;;6.10;99.90;;;;;;5089617;28;20396;-68
2022/04/15 03:29:56;;;;;;;38.58;14.95;;;6.30;99.90;;;;;;5088277;28;20048;-68
2022/04/15 03:32:21;;;;;;;43.05;15.02;;;6.30;99.90;;;;;;5082883;28;20763;-68
2022/04/15 03:34:47;;;;;;;40.88;15.02;;;6.30;99.90;;;;;;5088182;28;20111;-68
2022/04/15 03:37:12;;;;;;;39.78;15.98;;;6.40;99.90;;;;;;5088870;28;20093;-68
2022/04/15 03:39:38;;;;;;;40.97;15.93;;;6.40;99.90;;;;;;5087845;28;20063;-68
2022/04/15 03:42:04;;;;;;;49.20;16.33;;;6.40;99.90;;;;;;5070093;28;20040;-68
2022/04/15 03:44:30;;;;;;;42.72;15.43;;;6.50;99.90;;;;;;5087322;28;20036;-69
2022/04/15 03:46:55;;;;;;;36.15;15.13;;;6.30;99.90;;;;;;5089447;28;20490;-68
2022/04/15 03:49:21;;;;;;;40.05;15.75;;;6.40;99.90;;;;;;5072396;28;20079;-68
2022/04/15 03:51:46;;;;;;;40.40;15.45;;;6.50;99.90;;;;;;5090125;28;20070;-68
2022/04/15 03:54:12;;;;;;;37.72;16.05;;;6.50;99.90;;;;;;5093557;28;20066;-68
2022/04/15 03:56:38;;;;;;;41.22;15.45;;;6.60;99.90;;;;;;5092433;28;20067;-68
2022/04/15 03:59:04;;;;;;;36.45;14.77;;;6.50;99.90;;;;;;5092834;28;20210;-68
2022/04/15 04:01:30;;;;;;;40.95;16.08;;;6.50;99.90;;;;;;5093146;28;20486;-68
2022/04/15 04:03:56;;;;;;;43.05;15.90;;;6.50;99.90;;;;;;5090086;28;20503;-68
2022/04/15 04:06:21;;;;;;;46.05;16.45;;;6.70;99.90;;;;;;5092665;28;20131;-69
2022/04/15 04:08:50;;;;;;;38.42;15.73;;;6.70;99.90;;;;;;5092077;28;20483;-68
2022/04/15 04:11:16;;;;;;;38.08;14.85;;;6.70;99.90;;;;;;5092591;28;20100;-68
2022/04/15 04:13:42;;;;;;;41.42;15.75;;;6.70;99.90;;;;;;5092606;28;20051;-68
2022/04/15 04:16:08;;;;;;;36.95;14.63;;;6.60;99.90;;;;;;5093265;28;20115;-68
2022/04/15 04:18:34;;;;;;;38.05;14.52;;;6.60;99.90;;;;;;5094505;28;20169;-68
2022/04/15 04:20:59;;;;;;;38.80;15.45;;;6.80;99.90;;;;;;5092593;28;20043;-69
2022/04/15 04:23:25;;;;;;;42.95;15.77;;;6.70;99.90;;;;;;5091896;28;20032;-69
2022/04/15 04:25:50;;;;;;;41.10;16.50;;;6.70;99.90;;;;;;5082214;28;20036;-69
2022/04/15 04:28:16;;;;;;;33.30;14.75;;;6.80;99.90;;;;;;5083471;28;20043;-68
2022/04/15 04:30:41;;;;;;;39.30;15.05;;;6.80;99.90;;;;;;5092136;28;20135;-68
2022/04/15 04:33:07;;;;;;;35.83;14.40;;;6.70;99.90;;;;;;5090089;28;20035;-68
2022/04/15 04:35:33;;;;;;;33.28;13.70;;;6.90;99.90;;;;;;5071898;28;20112;-68
2022/04/15 04:37:58;;;;;;;34.72;13.80;;;6.70;99.90;;;;;;5081869;28;20036;-69
2022/04/15 04:40:24;;;;;;;36.65;13.48;;;6.90;99.90;;;;;;5091823;28;20058;-69
2022/04/15 04:42:51;;;;;;;37.00;13.20;;;6.90;99.90;;;;;;5092183;28;20048;-69
2022/04/15 04:45:18;;;;;;;36.60;15.68;;;6.90;99.90;;;;;;5090611;28;20040;-69
2022/04/15 04:47:45;;;;;;;36.95;14.35;;;6.90;99.90;;;;;;5076087;28;20048;-69
2022/04/15 04:50:10;;;;;;;38.63;15.43;;;6.90;99.90;;;;;;5091935;28;20119;-69
2022/04/15 04:52:37;;;;;;;34.65;14.73;;;7.00;99.90;;;;;;5091274;28;20115;-69
2022/04/15 04:55:04;;;;;;;33.40;13.98;;;7.00;99.90;;;;;;5092604;28;20552;-69
2022/04/15 04:57:29;;;;;;;31.67;14.57;;;6.90;99.90;;;;;;5092017;28;20479;-69
2022/04/15 04:59:56;;;;;;;37.20;15.30;;;7.10;99.90;;;;;;5077887;28;20051;-68
2022/04/15 05:02:22;;;;;;;39.10;14.40;;;7.10;99.90;;;;;;5090793;28;20043;-67
2022/04/15 05:04:47;;;;;;;34.95;15.38;;;7.00;99.90;;;;;;5092043;28;20482;-67
2022/04/15 05:07:14;;;;;;;36.97;14.50;;;7.00;99.90;;;;;;5092457;28;20071;-67
2022/04/15 05:09:43;;;;;;;37.28;15.25;;;7.10;99.90;;;;;;5074473;28;20032;-67
2022/04/15 05:12:11;;;;;;;36.08;15.38;;;7.10;99.90;;;;;;5088769;28;20163;-67
2022/04/15 05:14:37;;;;;;;38.25;16.90;;;7.00;99.90;;;;;;5089785;28;20043;-68
2022/04/15 05:17:04;;;;;;;45.75;19.63;;;7.20;99.90;;;;;;5090104;28;20035;-68
2022/04/15 05:19:29;;;;;;;33.35;13.57;;;7.00;99.90;;;;;;5088262;28;20043;-68
2022/04/15 05:21:55;;;;;;;35.47;14.82;;;7.10;99.90;;;;;;5090277;28;20040;-68
2022/04/15 05:24:20;;;;;;;38.28;16.10;;;7.20;99.90;;;;;;5089572;28;20437;-68
2022/04/15 05:26:46;;;;;;;36.35;16.15;;;7.30;99.90;;;;;;5089329;28;20048;-68
2022/04/15 05:29:11;;;;;;;34.35;14.43;;;7.40;99.90;;;;;;5089976;28;20047;-68
2022/04/15 05:31:37;;;;;;;35.33;14.98;;;7.20;99.90;;;;;;5068943;28;20398;-68
2022/04/15 05:34:03;;;;;;;28.25;12.27;;;7.40;99.90;;;;;;5091279;28;20047;-68
2022/04/15 05:36:29;;;;;;;33.45;12.98;;;7.30;99.90;;;;;;5074517;28;20475;-68
2022/04/15 05:38:54;;;;;;;28.23;12.35;;;7.50;99.90;;;;;;5091024;28;20161;-68
2022/04/15 05:41:20;;;;;;;32.67;12.88;;;7.50;99.90;;;;;;5091616;28;20040;-68
2022/04/15 05:43:46;;;;;;;35.95;14.68;;;7.50;99.90;;;;;;5091622;28;20079;-68
2022/04/15 05:46:12;;;;;;;33.30;14.02;;;7.50;99.90;;;;;;5076284;28;20491;-67
2022/04/15 05:48:38;;;;;;;39.55;14.80;;;7.50;99.90;;;;;;5088627;28;20043;-68
2022/04/15 05:51:03;;;;;;;41.72;15.90;;;7.50;99.90;;;;;;5091305;28;20398;-67
2022/04/15 05:53:29;;;;;;;44.42;16.55;;;7.50;99.90;;;;;;5089073;28;20101;-68
2022/04/15 05:55:56;;;;;;;41.92;16.13;;;7.70;99.90;;;;;;5083826;28;20036;-68
2022/04/15 05:58:22;;;;;;;40.55;16.60;;;7.70;99.90;;;;;;5089883;28;20505;-68
2022/04/15 06:00:47;;;;;;;40.35;16.27;;;7.60;99.90;;;;;;5086663;28;20072;-68
2022/04/15 06:03:13;;;;;;;42.55;17.00;;;7.70;99.90;;;;;;5087806;28;20081;-68
2022/04/15 06:05:38;;;;;;;44.45;17.52;;;7.70;99.90;;;;;;5085419;28;20471;-67
2022/04/15 06:08:04;;;;;;;41.28;17.70;;;7.80;99.90;;;;;;5088380;28;20071;-68
2022/04/15 06:10:30;;;;;;;44.92;17.70;;;7.90;99.90;;;;;;5085956;28;20751;-69
2022/04/15 06:13:02;;;;;;;35.35;14.88;;;8.00;99.90;;;;;;5087153;28;20078;-68
2022/04/15 06:15:31;;;;;;;37.15;15.30;;;8.10;99.90;;;;;;5087624;28;20043;-69
2022/04/15 06:18:01;;;;;;;40.70;15.27;;;8.10;99.90;;;;;;5084882;28;20123;-69
2022/04/15 06:20:27;;;;;;;32.63;15.10;;;8.20;99.90;;;;;;5072525;28;20063;-68
2022/04/15 06:22:53;;;;;;;31.85;12.77;;;8.20;99.90;;;;;;5088183;28;20495;-68
2022/04/15 06:25:19;;;;;;;29.05;12.65;;;8.20;99.90;;;;;;5069016;28;20037;-68
2022/04/15 06:27:45;;;;;;;33.95;16.23;;;8.30;99.90;;;;;;5073995;28;20092;-68
2022/04/15 06:30:11;;;;;;;34.95;15.27;;;8.20;99.90;;;;;;5072589;28;20131;-69
2022/04/15 06:32:37;;;;;;;31.80;13.85;;;8.30;99.90;;;;;;5088660;28;20040;-68
2022/04/15 06:35:06;;;;;;;33.42;14.82;;;8.20;99.90;;;;;;5089375;28;20040;-68
2022/04/15 06:37:32;;;;;;;37.45;16.10;;;8.30;99.90;;;;;;5089591;28;20484;-68
2022/04/15 06:39:58;;;;;;;33.58;14.70;;;8.30;99.90;;;;;;5069467;28;20131;-68
2022/04/15 06:42:28;;;;;;;33.00;14.15;;;8.40;99.90;;;;;;5089046;28;20031;-66
2022/04/15 06:44:54;;;;;;;26.58;13.05;;;8.40;99.90;;;;;;5089469;28;20398;-69
2022/04/15 06:47:19;;;;;;;28.17;11.95;;;8.30;99.90;;;;;;5088804;28;20069;-67
2022/04/15 06:49:46;;;;;;;26.08;10.90;;;8.40;99.90;;;;;;5086714;28;20498;-68
2022/04/15 06:52:12;;;;;;;23.65;11.77;;;8.40;99.90;;;;;;5088805;28;20044;-68
2022/04/15 06:54:38;;;;;;;23.05;11.63;;;8.30;99.90;;;;;;5088446;28;20127;-68
2022/04/15 06:57:05;;;;;;;24.88;11.05;;;8.40;99.90;;;;;;5087052;28;20071;-68
2022/04/15 06:59:30;;;;;;;22.70;10.75;;;8.30;99.90;;;;;;5084080;28;20177;-68
2022/04/15 07:01:57;;;;;;;20.55;9.90;;;8.30;99.90;;;;;;5088589;28;20118;-70
2022/04/15 07:04:23;;;;;;;19.70;9.95;;;8.30;99.90;;;;;;5083303;28;20040;-68
2022/04/15 07:06:49;;;;;;;17.25;10.07;;;8.30;99.90;;;;;;5087101;28;20096;-69
2022/04/15 07:09:14;;;;;;;17.58;9.55;;;8.20;99.90;;;;;;5071039;28;20036;-67
2022/04/15 07:11:40;;;;;;;16.67;9.05;;;8.30;99.90;;;;;;5082362;28;20062;-69
2022/04/15 07:14:06;;;;;;;18.13;8.15;;;8.30;99.90;;;;;;5068058;28;20032;-68
2022/04/15 07:16:32;;;;;;;15.27;8.43;;;8.20;99.90;;;;;;5084272;28;20035;-67
2022/04/15 07:18:57;;;;;;;19.30;8.65;;;8.20;99.90;;;;;;5084613;28;20495;-69
2022/04/15 07:21:24;;;;;;;11.85;6.95;;;8.20;99.90;;;;;;5085904;28;20043;-69
2022/04/15 07:23:50;;;;;;;12.98;8.18;;;8.20;99.90;;;;;;5087103;28;20032;-69
2022/04/15 07:26:15;;;;;;;18.45;9.23;;;8.20;99.90;;;;;;5084769;28;20106;-67
2022/04/15 07:28:41;;;;;;;16.02;8.82;;;8.20;99.90;;;;;;5084325;28;20075;-69
2022/04/15 07:31:07;;;;;;;15.38;7.30;;;8.20;99.90;;;;;;5086557;28;20132;-69
2022/04/15 07:33:32;;;;;;;15.68;7.43;;;8.10;99.90;;;;;;5084006;28;20185;-68
2022/04/15 07:35:58;;;;;;;17.75;8.43;;;8.20;99.90;;;;;;5084028;28;20024;-68
2022/04/15 07:38:23;;;;;;;17.30;8.60;;;8.20;99.90;;;;;;5085537;28;20391;-68
2022/04/15 07:40:49;;;;;;;14.63;7.93;;;8.10;99.90;;;;;;5086502;28;20044;-67
2022/04/15 07:43:15;;;;;;;15.57;7.70;;;8.20;99.90;;;;;;5085920;28;20134;-70
2022/04/15 07:45:40;;;;;;;18.33;8.25;;;8.20;99.90;;;;;;5084373;28;20126;-68
2022/04/15 07:48:06;;;;;;;14.85;8.25;;;8.20;99.90;;;;;;5087202;28;20147;-70
2022/04/15 07:50:32;;;;;;;16.48;7.32;;;8.20;99.90;;;;;;5082665;28;20050;-69
2022/04/15 07:52:59;;;;;;;12.65;5.55;;;8.30;99.90;;;;;;5088105;28;20036;-67
2022/04/15 07:55:26;;;;;;;14.80;7.95;;;8.30;99.90;;;;;;5087159;28;20089;-68
2022/04/15 07:57:52;;;;;;;14.55;7.45;;;8.30;99.90;;;;;;5087573;28;20028;-70
2022/04/15 08:00:18;;;;;;;12.88;5.20;;;8.20;99.90;;;;;;5087376;28;20418;-67
2022/04/15 08:02:43;;;;;;;11.63;6.47;;;8.20;99.90;;;;;;5088077;28;20085;-69
2022/04/15 08:05:09;;;;;;;16.42;8.55;;;8.20;99.90;;;;;;5087806;28;20032;-67
2022/04/15 08:07:35;;;;;;;18.73;8.70;;;8.20;99.90;;;;;;5086484;28;20032;-68
2022/04/15 08:10:02;;;;;;;17.52;8.45;;;8.10;99.90;;;;;;5086244;28;20036;-67
2022/04/15 08:12:27;;;;;;;17.35;8.98;;;8.10;99.90;;;;;;5071424;28;20036;-65
2022/04/15 08:14:53;;;;;;;21.23;9.52;;;8.00;99.90;;;;;;5083241;28;20471;-67
2022/04/15 08:17:18;;;;;;;20.83;10.05;;;8.00;99.90;;;;;;5084077;28;20398;-68
2022/04/15 08:19:44;;;;;;;19.48;9.48;;;8.10;99.90;;;;;;5084114;28;20097;-68
2022/04/15 08:22:10;;;;;;;21.20;10.45;;;8.00;99.90;;;;;;5079745;28;20510;-67
2022/04/15 08:24:39;;;;;;;17.70;9.18;;;8.00;99.90;;;;;;5085657;28;20044;-69
2022/04/15 08:27:05;;;;;;;22.73;10.40;;;8.10;99.90;;;;;;5087312;28;20368;-69
2022/04/15 08:29:31;;;;;;;24.63;11.57;;;8.10;99.90;;;;;;5080200;28;20043;-69
2022/04/15 08:31:57;;;;;;;29.98;12.48;;;8.20;99.90;;;;;;5083749;28;20036;-69
2022/04/15 08:34:22;;;;;;;26.02;11.80;;;8.30;99.90;;;;;;5075163;28;20101;-68
2022/04/15 08:36:48;;;;;;;26.80;11.90;;;8.30;99.90;;;;;;5085858;28;20506;-68
2022/04/15 08:39:13;;;;;;;29.77;13.25;;;8.40;99.90;;;;;;5086616;28;20363;-68
2022/04/15 08:41:44;;;;;;;31.13;13.77;;;8.50;99.90;;;;;;5091364;28;20035;-69
2022/04/15 08:44:10;;;;;;;29.17;14.35;;;8.50;99.90;;;;;;5091660;28;20036;-67
2022/04/15 08:46:36;;;;;;;29.95;12.23;;;8.50;99.90;;;;;;5082680;28;20063;-68
2022/04/15 08:49:02;;;;;;;34.50;14.68;;;8.50;99.90;;;;;;5089950;28;20040;-69
2022/04/15 08:51:29;;;;;;;29.98;12.70;;;8.60;99.90;;;;;;5091374;28;20040;-69
2022/04/15 08:53:56;;;;;;;40.40;15.57;;;8.70;99.90;;;;;;5088740;28;20058;-67
2022/04/15 08:56:23;;;;;;;37.15;15.38;;;8.70;99.90;;;;;;5090696;28;20069;-68
2022/04/15 08:58:48;;;;;;;34.25;14.93;;;8.70;99.90;;;;;;5090752;28;20043;-69
2022/04/15 09:01:14;;;;;;;35.03;15.20;;;8.70;99.90;;;;;;5087038;28;20052;-69
2022/04/15 09:03:40;;;;;;;39.55;16.08;;;8.80;99.90;;;;;;5073547;28;20043;-69
2022/04/15 09:06:16;;;;;;;33.50;13.73;;;8.80;99.90;;;;;;5091098;28;20057;-68
2022/04/15 09:09:03;;;;;;;39.80;15.68;;;8.80;99.90;;;;;;5080018;28;20040;-69
2022/04/15 09:11:34;;;;;;;42.13;17.30;;;8.90;99.90;;;;;;5080069;28;20040;-69
2022/04/15 09:14:03;;;;;;;39.80;14.57;;;9.00;99.90;;;;;;5086315;28;20166;-69
2022/04/15 09:16:30;;;;;;;42.20;16.40;;;9.10;99.90;;;;;;5058999;28;20031;-70
2022/04/15 09:18:56;;;;;;;40.53;16.08;;;9.10;99.90;;;;;;5086029;28;20051;-69
2022/04/15 09:21:27;;;;;;;42.70;16.80;;;9.10;99.90;;;;;;5084731;28;20036;-68
2022/04/15 09:23:55;;;;;;;38.75;15.93;;;9.10;99.90;;;;;;5087636;28;20036;-68
2022/04/15 09:26:22;;;;;;;40.22;15.55;;;9.20;99.90;;;;;;5085705;28;20332;-68
2022/04/15 09:28:48;;;;;;;39.55;16.83;;;9.20;99.90;;;;;;5088600;28;20110;-69
2022/04/15 09:31:16;;;;;;;38.60;15.32;;;9.20;99.90;;;;;;5090443;28;20064;-68
2022/04/15 09:33:55;;;;;;;38.30;16.20;;;9.30;99.90;;;;;;5087885;28;20570;-69
2022/04/15 09:36:35;;;;;;;39.13;15.98;;;9.30;99.90;;;;;;5087250;28;20043;-68
2022/04/15 09:39:10;;;;;;;36.80;15.93;;;9.30;99.90;;;;;;5089687;28;20368;-69
2022/04/15 09:41:50;;;;;;;36.17;16.00;;;9.40;99.90;;;;;;5089050;28;20043;-68
2022/04/15 09:44:15;;;;;;;40.42;17.00;;;9.50;99.90;;;;;;5087733;28;20040;-67
2022/04/15 09:46:44;;;;;;;36.45;16.67;;;9.60;99.90;;;;;;5087984;28;20415;-68
2022/04/15 09:49:10;;;;;;;38.08;17.23;;;9.60;99.90;;;;;;5089105;28;20079;-67
2022/04/15 09:51:51;;;;;;;44.13;16.67;;;9.70;99.90;;;;;;5086988;28;20036;-67
2022/04/15 09:54:25;;;;;;;36.63;16.30;;;9.80;99.90;;;;;;5086434;28;20355;-68
2022/04/15 09:56:53;;;;;;;37.72;16.58;;;9.90;99.90;;;;;;5084617;28;20044;-67
2022/04/15 09:59:24;;;;;;;39.00;16.67;;;10.00;99.90;;;;;;5084329;28;20075;-70
2022/04/15 10:01:54;;;;;;;36.42;16.45;;;10.00;99.90;;;;;;5088241;28;20130;-72
2022/04/15 10:04:22;;;;;;;42.25;18.08;;;10.10;99.90;;;;;;5084951;28;20079;-70
2022/04/15 10:06:48;;;;;;;45.88;16.35;;;10.10;99.90;;;;;;5085288;28;20032;-74
2022/04/15 10:09:14;;;;;;;40.10;15.90;;;10.20;99.90;;;;;;5087398;28;20032;-73
2022/04/15 10:11:45;;;;;;;28.27;10.65;;;10.10;99.90;;;;;;5085003;28;20032;-74
2022/04/15 10:14:12;;;;;;;27.10;13.82;;;10.20;99.90;;;;;;5089736;28;20097;-72
2022/04/15 10:16:39;;;;;;;31.95;14.10;;;10.20;99.90;;;;;;5085284;28;20115;-71
2022/04/15 10:19:05;;;;;;;37.60;15.23;;;10.20;99.90;;;;;;5088920;28;20515;-71
2022/04/15 10:21:38;;;;;;;43.58;17.05;;;10.20;99.90;;;;;;5071247;28;20395;-71
2022/04/15 10:24:07;;;;;;;40.38;15.85;;;10.30;99.90;;;;;;5072459;28;20402;-72
2022/04/15 10:26:41;;;;;;;32.35;15.50;;;10.30;99.90;;;;;;5089289;28;20395;-70
2022/04/15 10:29:08;;;;;;;36.08;16.55;;;10.40;99.90;;;;;;5089034;28;20052;-73
2022/04/15 10:31:44;;;;;;;37.42;15.18;;;10.50;99.90;;;;;;5089178;28;20048;-70
2022/04/15 10:34:19;;;;;;;36.60;15.05;;;10.60;99.90;;;;;;5089140;28;20028;-71
2022/04/15 10:36:53;;;;;;;32.10;14.95;;;10.70;99.90;;;;;;5085148;28;20482;-71
2022/04/15 10:39:21;;;;;;;31.48;14.57;;;11.00;99.90;;;;;;5088921;28;20051;-72
2022/04/15 10:41:51;;;;;;;29.98;13.07;;;11.10;99.90;;;;;;5087498;28;20112;-75
2022/04/15 10:44:28;;;;;;;27.38;12.18;;;11.20;99.90;;;;;;5088534;28;20043;-74
2022/04/15 10:47:10;;;;;;;32.10;14.18;;;11.20;99.90;;;;;;5088518;28;20047;-77
2022/04/15 10:49:39;;;;;;;23.52;13.02;;;11.20;99.90;;;;;;5088198;28;20036;-70
2022/04/15 10:52:25;;;;;;;29.75;12.60;;;11.20;99.90;;;;;;5088538;28;20044;-74
2022/04/15 10:54:59;;;;;;;27.98;13.27;;;11.30;99.90;;;;;;5089584;28;20027;-71
2022/04/15 10:57:31;;;;;;;23.10;11.77;;;11.30;99.90;;;;;;5084417;28;20032;-72
2022/04/15 11:02:50;;;;;;;24.70;12.55;;;11.60;99.90;;;;;;5069649;28;20063;-72
2022/04/15 11:05:51;;;;;;;27.00;12.02;;;11.80;99.90;;;;;;5088253;28;20351;-72
2022/04/15 11:08:19;;;;;;;22.90;10.63;;;11.90;99.90;;;;;;5089502;28;20036;-75
2022/04/15 11:11:05;;;;;;;22.65;9.93;;;11.90;99.90;;;;;;5074468;28;20055;-72
2022/04/15 11:13:35;;;;;;;22.85;11.57;;;11.90;99.90;;;;;;5088433;28;20044;-73
2022/04/15 11:16:06;;;;;;;25.60;11.15;;;11.90;99.90;;;;;;5072991;28;20055;-72
2022/04/15 11:18:56;;;;;;;25.27;11.75;;;11.80;99.90;;;;;;5084686;28;20039;-73
2022/04/15 11:21:36;;;;;;;24.13;11.77;;;11.80;99.90;;;;;;5088666;28;20089;-73
2022/04/15 11:24:12;;;;;;;21.83;11.60;;;11.70;99.90;;;;;;5069373;28;20040;-73
2022/04/15 11:26:43;;;;;;;22.83;11.07;;;11.70;99.90;;;;;;5082124;28;20024;-72
2022/04/15 11:29:11;;;;;;;22.48;10.38;;;11.70;99.90;;;;;;5081035;28;20059;-72
2022/04/15 11:31:46;;;;;;;16.17;10.18;;;11.70;99.90;;;;;;5071880;28;20048;-72
2022/04/15 11:34:17;;;;;;;23.20;10.57;;;11.70;99.90;;;;;;5074888;28;20042;-72
2022/04/15 11:36:50;;;;;;;21.15;10.23;;;11.80;99.90;;;;;;5088902;28;20522;-72
2022/04/15 11:39:17;;;;;;;21.35;10.85;;;11.80;99.90;;;;;;5071164;28;20071;-71
2022/04/15 11:41:44;;;;;;;22.45;9.95;;;11.80;99.90;;;;;;5089280;28;20044;-72
2022/04/15 11:44:10;;;;;;;25.02;10.30;;;11.80;99.90;;;;;;5089354;28;20032;-73
2022/04/15 11:46:36;;;;;;;18.35;9.75;;;11.80;99.90;;;;;;5072742;28;20054;-71
2022/04/15 11:49:11;;;;;;;19.83;10.05;;;11.90;99.90;;;;;;5068395;28;20597;-72
2022/04/15 11:51:37;;;;;;;17.48;9.63;;;11.90;99.90;;;;;;5069916;28;20518;-72
2022/04/15 11:54:02;;;;;;;17.38;9.65;;;11.80;99.90;;;;;;5068886;28;20040;-72
2022/04/15 11:56:29;;;;;;;23.42;10.75;;;11.90;99.90;;;;;;5078290;28;20044;-72
2022/04/15 11:58:57;;;;;;;17.42;9.82;;;11.90;99.90;;;;;;5071859;28;20040;-72
2022/04/15 12:01:31;;;;;;;22.42;10.00;;;11.90;99.90;;;;;;5088839;28;20055;-71
2022/04/15 12:04:00;;;;;;;15.65;9.68;;;12.00;99.90;;;;;;5088517;28;20379;-72
2022/04/15 12:06:32;;;;;;;20.92;9.45;;;12.00;99.90;;;;;;5088823;28;20500;-72
2022/04/15 12:08:58;;;;;;;21.63;9.10;;;12.10;99.90;;;;;;5085431;28;20101;-76
2022/04/15 12:11:25;;;;;;;19.80;9.70;;;12.00;99.90;;;;;;5068079;28;20043;-71
2022/04/15 12:13:59;;;;;;;19.33;9.20;;;12.10;99.90;;;;;;5070904;28;20503;-71
2022/04/15 12:16:28;;;;;;;18.65;9.30;;;12.10;99.90;;;;;;5072524;28;20032;-71
2022/04/15 12:18:56;;;;;;;19.17;10.35;;;12.10;99.90;;;;;;5071413;28;20487;-73
2022/04/15 12:21:21;;;;;;;24.10;9.90;;;12.20;99.90;;;;;;5072332;28;20049;-71
2022/04/15 12:24:07;;;;;;;23.27;10.52;;;12.30;99.90;;;;;;5084781;28;20040;-70
2022/04/15 12:26:47;;;;;;;16.38;9.52;;;12.20;99.90;;;;;;5092658;28;20094;-70
2022/04/15 12:32:17;;;;;;;17.42;9.20;;;12.30;99.90;;;;;;5092248;28;20047;-71
2022/04/15 12:34:45;;;;;;;16.95;8.90;;;12.30;99.90;;;;;;5091004;28;20048;-71
2022/04/15 12:37:41;;;;;;;18.92;9.57;;;12.30;99.90;;;;;;5092586;28;20068;-72
2022/04/15 12:40:17;;;;;;;16.15;9.23;;;12.30;99.90;;;;;;5091144;28;20043;-72
2022/04/15 12:42:44;;;;;;;19.60;9.50;;;12.30;99.90;;;;;;5082678;28;20071;-72
2022/04/15 12:45:12;;;;;;;17.00;9.35;;;12.30;99.90;;;;;;5092361;28;20047;-73